createdAt,value
2024-02-21T00:01:16.407Z,80.44
2024-02-21T00:03:45.043Z,80.45
2024-02-21T00:06:13.555Z,80.29
2024-02-21T00:08:42.262Z,80.17
2024-02-21T00:11:10.986Z,79.96
2024-02-21T00:13:39.552Z,80.66
2024-02-21T00:16:09.665Z,80.66
2024-02-21T00:18:38.174Z,80.80
2024-02-21T00:21:06.732Z,80.67
2024-02-21T00:23:35.336Z,80.43
2024-02-21T00:26:03.986Z,79.96
2024-02-21T00:28:32.558Z,80.34
2024-02-21T00:31:01.089Z,81.12
2024-02-21T00:33:31.039Z,81.12
2024-02-21T00:35:59.699Z,80.67
2024-02-21T00:38:28.350Z,80.88
2024-02-21T00:40:56.897Z,79.94
2024-02-21T00:43:25.847Z,80.09
2024-02-21T00:45:54.435Z,80.06
2024-02-21T00:48:23.062Z,80.08
2024-02-21T00:50:53.042Z,79.80
2024-02-21T00:53:21.618Z,80.12
2024-02-21T00:55:50.170Z,79.82
2024-02-21T00:58:18.720Z,79.54
2024-02-21T01:00:47.421Z,79.79
2024-02-21T01:03:16.339Z,78.82
2024-02-21T01:05:44.850Z,79.42
2024-02-21T01:08:14.751Z,79.38
2024-02-21T01:10:43.271Z,78.69
2024-02-21T01:13:11.782Z,79.09
2024-02-21T01:15:40.409Z,78.90
2024-02-21T01:18:09.038Z,78.95
2024-02-21T01:20:37.579Z,79.00
2024-02-21T01:23:06.145Z,79.42
2024-02-21T01:25:36.110Z,79.33
2024-02-21T01:28:05.049Z,79.05
2024-02-21T01:30:33.809Z,79.46
2024-02-21T01:33:02.391Z,79.29
2024-02-21T01:35:31.023Z,79.16
2024-02-21T01:37:59.604Z,79.43
2024-02-21T01:40:28.232Z,79.30
2024-02-21T01:42:58.326Z,78.85
2024-02-21T01:45:26.862Z,79.30
2024-02-21T01:47:55.412Z,79.01
2024-02-21T01:50:25.637Z,79.10
2024-02-21T01:52:54.473Z,78.82
2024-02-21T01:55:23.125Z,78.56
2024-02-21T01:57:51.732Z,79.04
2024-02-21T02:00:22.616Z,78.69
2024-02-21T02:02:52.254Z,78.36
2024-02-21T02:05:22.295Z,78.69
2024-02-21T02:07:50.940Z,78.23
2024-02-21T02:10:19.639Z,78.18
2024-02-21T02:12:48.161Z,78.93
2024-02-21T02:15:16.668Z,78.71
2024-02-21T02:17:46.605Z,78.90
2024-02-21T02:20:15.821Z,79.29
2024-02-21T02:22:46.672Z,79.56
2024-02-21T02:25:16.708Z,80.33
2024-02-21T02:27:46.381Z,80.86
2024-02-21T02:30:15.268Z,81.56
2024-02-21T02:32:47.056Z,81.94
2024-02-21T02:35:15.999Z,81.83
2024-02-21T02:37:50.662Z,82.42
2024-02-21T02:40:20.954Z,82.76
2024-02-21T02:42:50.140Z,83.44
2024-02-21T02:45:18.873Z,83.34
2024-02-21T02:47:48.261Z,83.77
2024-02-21T02:50:17.037Z,84.27
2024-02-21T02:52:45.553Z,85.31
2024-02-21T02:55:14.487Z,84.66
2024-02-21T02:57:44.661Z,84.85
2024-02-21T03:00:14.419Z,85.81
2024-02-21T03:02:44.546Z,86.19
2024-02-21T03:05:16.084Z,86.60
2024-02-21T03:07:45.544Z,86.36
2024-02-21T03:10:15.349Z,86.71
2024-02-21T03:12:45.421Z,87.10
2024-02-21T03:15:14.950Z,87.23
2024-02-21T03:17:43.871Z,87.25
2024-02-21T03:20:13.877Z,87.55
2024-02-21T03:22:43.044Z,88.58
2024-02-21T03:25:11.883Z,88.65
2024-02-21T03:27:40.517Z,88.88
2024-02-21T03:30:11.524Z,89.05
2024-02-21T03:32:40.419Z,89.61
2024-02-21T03:35:09.490Z,89.61
2024-02-21T03:37:38.075Z,89.78
2024-02-21T03:40:10.220Z,90.48
2024-02-21T03:42:39.288Z,91.13
2024-02-21T03:45:08.929Z,91.34
2024-02-21T03:47:39.417Z,91.16
2024-02-21T03:50:09.060Z,91.98
2024-02-21T03:52:37.715Z,92.31
2024-02-21T03:55:06.707Z,92.28
2024-02-21T03:57:35.228Z,92.48
2024-02-21T04:00:04.770Z,92.30
2024-02-21T04:02:33.334Z,92.41
2024-02-21T04:05:03.266Z,93.27
2024-02-21T04:07:31.938Z,93.38
2024-02-21T04:10:09.127Z,93.70
2024-02-21T04:12:39.400Z,93.59
2024-02-21T04:15:08.564Z,93.58
2024-02-21T04:17:37.075Z,93.55
2024-02-21T04:20:09.938Z,93.40
2024-02-21T04:22:38.734Z,93.13
2024-02-21T04:25:08.321Z,93.00
2024-02-21T04:27:36.803Z,93.54
2024-02-21T04:30:06.087Z,93.04
2024-02-21T04:32:35.123Z,93.34
2024-02-21T04:35:03.850Z,93.45
2024-02-21T04:37:33.805Z,93.31
2024-02-21T04:40:03.124Z,93.13
2024-02-21T04:42:31.660Z,93.09
2024-02-21T04:45:00.243Z,93.69
2024-02-21T04:47:29.592Z,93.60
2024-02-21T04:49:58.119Z,93.56
2024-02-21T04:52:26.610Z,93.45
2024-02-21T04:54:56.929Z,93.89
2024-02-21T04:57:26.400Z,92.62
2024-02-21T04:59:54.874Z,92.69
2024-02-21T05:02:25.416Z,93.07
2024-02-21T05:04:54.974Z,92.61
2024-02-21T05:07:23.901Z,93.11
2024-02-21T05:09:52.362Z,92.52
2024-02-21T05:12:22.262Z,92.86
2024-02-21T05:14:50.783Z,92.41
2024-02-21T05:17:19.453Z,92.33
2024-02-21T05:19:48.077Z,92.02
2024-02-21T05:22:16.636Z,92.04
2024-02-21T05:24:45.192Z,92.20
2024-02-21T05:27:13.683Z,91.75
2024-02-21T05:29:43.578Z,92.06
2024-02-21T05:32:12.158Z,92.07
2024-02-21T05:34:41.045Z,92.18
2024-02-21T05:37:09.893Z,92.17
2024-02-21T05:39:38.350Z,91.79
2024-02-21T05:42:07.194Z,92.02
2024-02-21T05:44:35.713Z,91.95
2024-02-21T05:47:06.331Z,92.16
2024-02-21T05:49:34.876Z,92.07
2024-02-21T05:52:03.539Z,91.71
2024-02-21T05:54:32.013Z,90.96
2024-02-21T05:57:00.554Z,91.52
2024-02-21T05:59:29.061Z,91.75
2024-02-21T06:01:59.050Z,91.80
2024-02-21T06:04:29.222Z,91.91
2024-02-21T06:06:57.732Z,91.98
2024-02-21T06:09:26.231Z,91.95
2024-02-21T06:11:54.787Z,91.95
2024-02-21T06:14:23.669Z,91.58
2024-02-21T06:16:52.214Z,92.04
2024-02-21T06:19:20.908Z,92.25
2024-02-21T06:21:50.905Z,92.14
2024-02-21T06:24:19.367Z,92.13
2024-02-21T06:26:47.866Z,91.63
2024-02-21T06:29:16.402Z,92.15
2024-02-21T06:31:44.945Z,91.77
2024-02-21T06:34:13.595Z,91.32
2024-02-21T06:36:42.154Z,91.46
2024-02-21T06:39:12.568Z,91.23
2024-02-21T06:41:41.613Z,91.61
2024-02-21T06:44:10.182Z,91.91
2024-02-21T06:46:38.743Z,91.22
2024-02-21T06:49:07.388Z,90.75
2024-02-21T06:51:36.289Z,91.12
2024-02-21T06:54:04.814Z,91.10
2024-02-21T06:56:34.749Z,90.64
2024-02-21T06:59:04.508Z,90.95
2024-02-21T07:01:33.237Z,90.61
2024-02-21T07:04:01.988Z,90.33
2024-02-21T07:06:33.860Z,90.83
2024-02-21T07:09:03.708Z,90.03
2024-02-21T07:11:32.337Z,90.10
2024-02-21T07:14:02.336Z,89.76
2024-02-21T07:16:30.937Z,89.79
2024-02-21T07:18:59.570Z,89.78
2024-02-21T07:21:28.087Z,89.56
2024-02-21T07:23:56.519Z,89.21
2024-02-21T07:26:25.016Z,88.88
2024-02-21T07:28:53.568Z,88.89
2024-02-21T07:31:23.493Z,88.77
2024-02-21T07:33:52.064Z,89.14
2024-02-21T07:36:30.421Z,88.95
2024-02-21T07:38:59.016Z,88.77
2024-02-21T07:41:27.662Z,88.56
2024-02-21T07:43:56.220Z,88.61
2024-02-21T07:46:26.258Z,88.17
2024-02-21T07:48:54.842Z,87.87
2024-02-21T07:51:23.317Z,88.56
2024-02-21T07:53:52.003Z,88.79
2024-02-21T07:56:20.467Z,87.82
2024-02-21T07:58:49.003Z,87.53
2024-02-21T08:01:20.844Z,86.98
2024-02-21T08:03:51.300Z,86.95
2024-02-21T08:06:19.865Z,86.87
2024-02-21T08:08:48.392Z,86.63
2024-02-21T08:11:17.095Z,86.56
2024-02-21T08:13:45.729Z,86.88
2024-02-21T08:16:14.265Z,86.76
2024-02-21T08:18:45.252Z,86.19
2024-02-21T08:21:15.301Z,85.67
2024-02-21T08:23:43.746Z,85.73
2024-02-21T08:26:12.819Z,85.99
2024-02-21T08:28:41.424Z,85.69
2024-02-21T08:31:09.910Z,85.76
2024-02-21T08:33:38.523Z,85.98
2024-02-21T08:36:09.034Z,85.89
2024-02-21T08:38:38.869Z,85.76
2024-02-21T08:41:07.719Z,85.26
2024-02-21T08:43:37.126Z,85.27
2024-02-21T08:46:07.407Z,85.13
2024-02-21T08:48:36.735Z,84.63
2024-02-21T08:51:06.687Z,84.39
2024-02-21T08:53:35.248Z,84.36
2024-02-21T08:56:05.761Z,84.20
2024-02-21T08:58:34.405Z,83.95
2024-02-21T09:01:02.970Z,84.15
2024-02-21T09:03:32.852Z,83.57
2024-02-21T09:06:01.768Z,83.67
2024-02-21T09:08:30.572Z,83.52
2024-02-21T09:10:59.148Z,83.36
2024-02-21T09:13:29.147Z,83.20
2024-02-21T09:15:57.864Z,83.09
2024-02-21T09:18:26.483Z,81.92
2024-02-21T09:20:55.007Z,82.47
2024-02-21T09:23:26.451Z,82.84
2024-02-21T09:25:56.561Z,81.80
2024-02-21T09:28:25.212Z,82.26
2024-02-21T09:30:55.192Z,82.06
2024-02-21T09:33:30.795Z,80.62
2024-02-21T09:36:02.230Z,80.33
2024-02-21T09:38:30.760Z,80.20
2024-02-21T09:41:02.845Z,80.57
2024-02-21T09:43:31.515Z,79.48
2024-02-21T09:46:02.436Z,78.88
2024-02-21T09:48:45.963Z,78.76
2024-02-21T09:51:16.564Z,78.47
2024-02-21T09:53:55.035Z,77.95
2024-02-21T09:56:30.973Z,77.68
2024-02-21T09:59:00.868Z,77.59
2024-02-21T10:01:34.924Z,77.97
2024-02-21T10:04:06.120Z,77.47
2024-02-21T10:06:35.058Z,77.56
2024-02-21T10:09:03.725Z,77.17
2024-02-21T10:11:32.569Z,77.26
2024-02-21T10:14:07.734Z,77.00
2024-02-21T10:16:38.832Z,77.17
2024-02-21T10:19:07.559Z,76.87
2024-02-21T10:21:36.173Z,76.82
2024-02-21T10:24:05.268Z,76.55
2024-02-21T10:26:33.733Z,76.37
2024-02-21T10:29:03.873Z,75.83
2024-02-21T10:31:32.466Z,76.18
2024-02-21T10:34:04.844Z,76.23
2024-02-21T10:36:33.650Z,76.47
2024-02-21T10:39:02.187Z,76.35
2024-02-21T10:41:32.304Z,75.90
2024-02-21T10:44:02.622Z,76.25
2024-02-21T10:46:33.468Z,75.93
2024-02-21T10:49:12.469Z,75.89
2024-02-21T10:51:45.571Z,76.05
2024-02-21T10:54:32.404Z,76.04
2024-02-21T10:57:04.920Z,76.14
2024-02-21T10:59:34.615Z,76.49
2024-02-21T11:02:04.175Z,76.36
2024-02-21T11:04:37.577Z,76.37
2024-02-21T11:07:10.944Z,76.68
2024-02-21T11:09:40.291Z,78.04
2024-02-21T11:12:10.019Z,77.75
2024-02-21T11:14:42.917Z,78.65
2024-02-21T11:17:18.677Z,78.74
2024-02-21T11:19:49.434Z,77.54
2024-02-21T11:22:19.227Z,76.53
2024-02-21T11:24:48.507Z,76.15
2024-02-21T11:27:18.067Z,76.13
2024-02-21T11:29:47.115Z,76.13
2024-02-21T11:32:17.472Z,76.39
2024-02-21T11:34:57.476Z,76.14
2024-02-21T11:37:28.768Z,74.92
2024-02-21T11:39:57.494Z,74.24
2024-02-21T11:42:27.512Z,73.94
2024-02-21T11:44:58.122Z,72.06
2024-02-21T11:47:27.513Z,72.36
2024-02-21T11:49:57.589Z,72.76
2024-02-21T11:52:29.198Z,72.27
2024-02-21T11:55:05.753Z,72.57
2024-02-21T11:57:36.617Z,70.94
2024-02-21T12:00:15.228Z,69.74
2024-02-21T12:02:44.197Z,69.46
2024-02-21T12:05:14.449Z,68.14
2024-02-21T12:07:43.528Z,66.43
2024-02-21T12:10:12.953Z,66.41
2024-02-21T12:12:42.102Z,67.39
2024-02-21T12:15:10.964Z,67.66
2024-02-21T12:17:40.103Z,68.33
2024-02-21T12:20:10.644Z,68.71
2024-02-21T12:22:41.434Z,68.09
2024-02-21T12:25:19.123Z,68.79
2024-02-21T12:27:47.739Z,68.64
2024-02-21T12:30:16.591Z,68.56
2024-02-21T12:32:45.284Z,68.96
2024-02-21T12:35:14.385Z,66.82
2024-02-21T12:37:44.414Z,67.68
2024-02-21T12:40:14.721Z,67.71
2024-02-21T12:42:44.137Z,67.38
2024-02-21T12:45:13.148Z,67.69
2024-02-21T12:47:41.925Z,68.37
2024-02-21T12:50:11.213Z,68.48
2024-02-21T12:52:39.987Z,68.48
2024-02-21T12:55:12.334Z,68.07
2024-02-21T12:57:41.173Z,65.65
2024-02-21T13:00:12.554Z,64.48
2024-02-21T13:02:41.493Z,63.79
2024-02-21T13:05:10.598Z,64.94
2024-02-21T13:07:39.385Z,65.35
2024-02-21T13:10:10.569Z,65.33
2024-02-21T13:12:39.365Z,65.98
2024-02-21T13:15:11.075Z,66.40
2024-02-21T13:17:39.709Z,66.25
2024-02-21T13:20:09.672Z,66.88
2024-02-21T13:22:38.442Z,66.75
2024-02-21T13:25:08.506Z,67.32
2024-02-21T13:27:38.601Z,67.61
2024-02-21T13:30:10.069Z,67.76
2024-02-21T13:32:39.207Z,68.33
2024-02-21T13:35:08.576Z,68.64
2024-02-21T13:37:38.274Z,69.11
2024-02-21T13:40:08.685Z,69.05
2024-02-21T13:42:39.016Z,69.04
2024-02-21T13:45:08.537Z,69.50
2024-02-21T13:47:39.756Z,69.63
2024-02-21T13:50:12.100Z,69.83
2024-02-21T13:52:40.715Z,69.40
2024-02-21T13:55:10.787Z,69.84
2024-02-21T13:57:40.870Z,70.06
2024-02-21T14:00:11.989Z,69.63
2024-02-21T14:02:40.909Z,69.45
2024-02-21T14:05:10.319Z,69.88
2024-02-21T14:07:40.787Z,69.79
2024-02-21T14:10:11.757Z,70.07
2024-02-21T14:12:41.792Z,69.31
2024-02-21T14:15:11.207Z,69.19
2024-02-21T14:17:40.391Z,68.88
2024-02-21T14:20:10.961Z,68.44
2024-02-21T14:22:40.214Z,69.20
2024-02-21T14:25:09.649Z,68.64
2024-02-21T14:27:38.225Z,68.57
2024-02-21T14:30:12.243Z,68.06
2024-02-21T14:32:45.794Z,68.41
2024-02-21T14:35:14.835Z,68.18
2024-02-21T14:37:43.515Z,68.28
2024-02-21T14:40:13.444Z,68.39
2024-02-21T14:42:42.021Z,67.94
2024-02-21T14:45:12.760Z,67.57
2024-02-21T14:47:41.486Z,67.99
2024-02-21T14:50:10.727Z,68.21
2024-02-21T14:52:39.548Z,68.14
2024-02-21T14:55:09.512Z,68.80
2024-02-21T14:57:39.177Z,68.23
2024-02-21T15:00:10.923Z,68.38
2024-02-21T15:02:41.187Z,68.22
2024-02-21T15:05:10.470Z,68.28
2024-02-21T15:07:39.099Z,68.42
2024-02-21T15:10:09.097Z,67.53
2024-02-21T15:12:37.696Z,67.56
2024-02-21T15:15:07.218Z,68.07
2024-02-21T15:17:35.886Z,68.15
2024-02-21T15:20:08.855Z,68.41
2024-02-21T15:22:37.938Z,67.94
2024-02-21T15:25:07.461Z,68.09
2024-02-21T15:27:40.339Z,67.85
2024-02-21T15:30:10.498Z,67.83
2024-02-21T15:32:39.317Z,68.40
2024-02-21T15:35:09.597Z,68.12
2024-02-21T15:37:38.497Z,67.90
2024-02-21T15:40:09.419Z,67.98
2024-02-21T15:42:39.282Z,68.07
2024-02-21T15:45:09.309Z,68.16
2024-02-21T15:47:38.063Z,68.21
2024-02-21T15:50:08.632Z,68.52
2024-02-21T15:52:38.773Z,69.06
2024-02-21T15:55:11.999Z,68.59
2024-02-21T15:57:40.999Z,68.86
2024-02-21T16:00:13.349Z,69.18
2024-02-21T16:02:43.196Z,69.36
2024-02-21T16:05:12.718Z,69.86
2024-02-21T16:07:43.933Z,68.92
2024-02-21T16:10:12.522Z,69.13
2024-02-21T16:12:42.446Z,68.70
2024-02-21T16:15:12.843Z,69.24
2024-02-21T16:17:41.786Z,69.99
2024-02-21T16:20:11.738Z,69.85
2024-02-21T16:22:40.928Z,69.34
2024-02-21T16:25:11.420Z,69.80
2024-02-21T16:27:41.927Z,70.01
2024-02-21T16:30:11.005Z,70.39
2024-02-21T16:32:43.928Z,70.56
2024-02-21T16:35:13.276Z,71.12
2024-02-21T16:37:42.234Z,70.48
2024-02-21T16:40:13.553Z,70.65
2024-02-21T16:42:42.081Z,70.26
2024-02-21T16:45:11.177Z,70.63
2024-02-21T16:47:39.747Z,70.85
2024-02-21T16:50:09.354Z,71.02
2024-02-21T16:52:38.175Z,70.66
2024-02-21T16:55:08.686Z,70.53
2024-02-21T16:57:39.822Z,70.50
2024-02-21T17:00:12.744Z,70.83
2024-02-21T17:02:48.437Z,70.87
2024-02-21T17:05:26.336Z,70.83
2024-02-21T17:07:55.738Z,70.81
2024-02-21T17:10:24.716Z,70.56
2024-02-21T17:12:55.084Z,70.72
2024-02-21T17:15:23.661Z,71.13
2024-02-21T17:17:52.367Z,71.87
2024-02-21T17:20:21.071Z,72.16
2024-02-21T17:22:49.651Z,72.26
2024-02-21T17:25:18.434Z,71.70
2024-02-21T17:27:47.010Z,72.29
2024-02-21T17:30:17.254Z,72.25
2024-02-21T17:32:46.311Z,72.18
2024-02-21T17:35:16.531Z,72.24
2024-02-21T17:37:45.168Z,72.37
2024-02-21T17:40:14.598Z,72.81
2024-02-21T17:42:43.086Z,72.65
2024-02-21T17:45:12.024Z,73.58
2024-02-21T17:47:41.976Z,73.38
2024-02-21T17:50:10.835Z,73.11
2024-02-21T17:52:39.506Z,73.29
2024-02-21T17:55:08.845Z,73.19
2024-02-21T17:57:37.455Z,73.33
2024-02-21T18:00:08.478Z,73.46
2024-02-21T18:02:37.552Z,74.12
2024-02-21T18:05:08.137Z,73.94
2024-02-21T18:07:37.520Z,73.63
2024-02-21T18:10:06.695Z,74.07
2024-02-21T18:12:35.507Z,73.80
2024-02-21T18:15:04.164Z,74.81
2024-02-21T18:17:34.219Z,75.08
2024-02-21T18:20:05.293Z,75.44
2024-02-21T18:22:35.907Z,75.46
2024-02-21T18:25:04.846Z,75.42
2024-02-21T18:27:33.616Z,75.95
2024-02-21T18:30:03.430Z,75.64
2024-02-21T18:32:32.292Z,75.74
2024-02-21T18:35:01.850Z,75.83
2024-02-21T18:37:31.148Z,75.30
2024-02-21T18:40:01.144Z,75.60
2024-02-21T18:42:29.657Z,76.01
2024-02-21T18:44:58.234Z,76.58
2024-02-21T18:47:26.840Z,77.17
2024-02-21T18:49:55.477Z,77.08
2024-02-21T18:52:24.098Z,77.87
2024-02-21T18:54:52.656Z,76.33
2024-02-21T18:57:22.583Z,77.01
2024-02-21T18:59:51.081Z,76.99
2024-02-21T19:02:19.679Z,76.90
2024-02-21T19:04:48.428Z,77.00
2024-02-21T19:07:17.617Z,76.85
2024-02-21T19:09:46.161Z,76.75
2024-02-21T19:12:15.064Z,77.01
2024-02-21T19:14:44.968Z,77.12
2024-02-21T19:17:13.492Z,77.17
2024-02-21T19:19:43.524Z,77.35
2024-02-21T19:22:12.134Z,77.84
2024-02-21T19:24:41.233Z,77.94
2024-02-21T19:27:10.057Z,78.68
2024-02-21T19:29:39.874Z,78.87
2024-02-21T19:32:09.876Z,78.83
2024-02-21T19:34:41.458Z,78.56
2024-02-21T19:37:11.162Z,78.49
2024-02-21T19:39:39.690Z,78.64
2024-02-21T19:42:08.362Z,78.40
2024-02-21T19:44:36.885Z,78.28
2024-02-21T19:47:06.459Z,78.81
2024-02-21T19:49:36.405Z,78.48
2024-02-21T19:52:05.539Z,79.40
2024-02-21T19:54:34.012Z,78.81
2024-02-21T19:57:03.805Z,78.98
2024-02-21T19:59:34.103Z,79.24
2024-02-21T20:02:02.754Z,79.28
2024-02-21T20:04:31.494Z,79.07
2024-02-21T20:07:01.615Z,78.94
2024-02-21T20:09:30.092Z,78.68
2024-02-21T20:11:59.894Z,78.48
2024-02-21T20:14:28.531Z,78.62
2024-02-21T20:16:57.140Z,78.26
2024-02-21T20:19:25.875Z,78.42
2024-02-21T20:21:54.899Z,78.42
2024-02-21T20:24:35.126Z,78.58
2024-02-21T20:27:08.434Z,78.30
2024-02-21T20:29:36.965Z,78.25
2024-02-21T20:32:06.145Z,78.07
2024-02-21T20:34:34.834Z,77.21
2024-02-21T20:37:07.158Z,76.77
2024-02-21T20:39:37.998Z,76.18
2024-02-21T20:42:06.969Z,76.84
2024-02-21T20:44:35.657Z,76.71
2024-02-21T20:47:05.211Z,76.23
2024-02-21T20:49:33.823Z,75.46
2024-02-21T20:52:02.503Z,75.78
2024-02-21T20:54:32.887Z,75.07
2024-02-21T20:57:03.373Z,74.58
2024-02-21T20:59:31.822Z,74.36
2024-02-21T21:02:03.531Z,74.33
2024-02-21T21:04:33.487Z,74.49
2024-02-21T21:07:02.937Z,74.46
2024-02-21T21:09:31.509Z,73.92
2024-02-21T21:12:00.120Z,74.01
2024-02-21T21:14:30.117Z,74.61
2024-02-21T21:16:58.761Z,74.43
2024-02-21T21:19:29.157Z,72.85
2024-02-21T21:21:59.986Z,73.16
2024-02-21T21:24:28.662Z,72.35
2024-02-21T21:26:57.186Z,72.06
2024-02-21T21:29:25.671Z,71.56
2024-02-21T21:31:55.610Z,71.00
2024-02-21T21:34:24.311Z,71.54
2024-02-21T21:36:52.865Z,71.07
2024-02-21T21:39:21.990Z,70.98
2024-02-21T21:41:50.575Z,70.96
2024-02-21T21:44:19.187Z,71.17
2024-02-21T21:46:48.948Z,70.68
2024-02-21T21:49:18.973Z,70.82
2024-02-21T21:51:47.512Z,70.14
2024-02-21T21:54:16.054Z,70.12
2024-02-21T21:56:44.585Z,70.64
2024-02-21T21:59:13.354Z,70.30
2024-02-21T22:01:42.058Z,69.96
2024-02-21T22:04:11.375Z,70.59
2024-02-21T22:06:41.545Z,69.86
2024-02-21T22:09:10.610Z,69.73
2024-02-21T22:11:40.012Z,69.75
2024-02-21T22:14:09.882Z,70.10
2024-02-21T22:16:38.726Z,69.96
2024-02-21T22:19:07.345Z,69.55
2024-02-21T22:21:35.882Z,69.43
2024-02-21T22:24:06.247Z,69.95
2024-02-21T22:26:34.813Z,70.08
2024-02-21T22:29:03.474Z,69.75
2024-02-21T22:31:32.339Z,70.14
2024-02-21T22:34:01.483Z,70.11
2024-02-21T22:36:31.094Z,69.71
2024-02-21T22:39:02.347Z,70.09
2024-02-21T22:41:34.322Z,69.75
2024-02-21T22:44:04.568Z,69.42
2024-02-21T22:46:33.745Z,69.48
2024-02-21T22:49:03.180Z,69.92
2024-02-21T22:51:32.912Z,69.32
2024-02-21T22:54:02.045Z,69.38
2024-02-21T22:56:30.817Z,68.92
2024-02-21T22:59:00.818Z,69.52
2024-02-21T23:01:29.366Z,69.00
2024-02-21T23:03:58.423Z,69.77
2024-02-21T23:06:27.383Z,69.68
2024-02-21T23:08:56.050Z,69.45
2024-02-21T23:11:24.635Z,68.60
2024-02-21T23:13:53.191Z,69.38
2024-02-21T23:16:23.098Z,69.99
2024-02-21T23:18:52.641Z,70.21
2024-02-21T23:21:21.211Z,69.63
2024-02-21T23:23:49.799Z,69.70
2024-02-21T23:26:18.382Z,69.41
2024-02-21T23:28:46.907Z,69.51
2024-02-21T23:31:15.449Z,68.46
2024-02-21T23:33:45.717Z,69.27
2024-02-21T23:36:14.935Z,68.32
2024-02-21T23:38:44.223Z,68.46
2024-02-21T23:41:12.836Z,69.08
2024-02-21T23:43:43.156Z,69.03
2024-02-21T23:46:12.252Z,68.22
2024-02-21T23:48:41.473Z,68.49
2024-02-21T23:51:11.522Z,68.82
2024-02-21T23:53:39.982Z,68.88
2024-02-21T23:56:11.865Z,68.86
2024-02-21T23:58:40.508Z,68.45
